sensor_id;sensor_type;location;lat;lon;timestamp;temperature;humidity
73643;DHT22;61938;48.652;9.292;2023-12-04T00:01:59;-6.90;99.90
73643;DHT22;61938;48.652;9.292;2023-12-04T00:04:25;-6.90;99.90
73643;DHT22;61938;48.652;9.292;2023-12-04T00:06:50;-6.90;99.90
73643;DHT22;61938;48.652;9.292;2023-12-04T00:09:16;-6.90;99.90
73643;DHT22;61938;48.652;9.292;2023-12-04T00:11:42;-7.00;99.90
73643;DHT22;61938;48.652;9.292;2023-12-04T00:14:07;-7.00;99.90
73643;DHT22;61938;48.652;9.292;2023-12-04T00:16:34;-7.00;99.90
73643;DHT22;61938;48.652;9.292;2023-12-04T00:19:00;-7.00;99.90
73643;DHT22;61938;48.652;9.292;2023-12-04T00:21:26;-6.90;99.90
73643;DHT22;61938;48.652;9.292;2023-12-04T00:23:51;-7.10;99.90
73643;DHT22;61938;48.652;9.292;2023-12-04T00:26:17;-7.10;99.90
73643;DHT22;61938;48.652;9.292;2023-12-04T00:28:42;-7.10;99.90
73643;DHT22;61938;48.652;9.292;2023-12-04T00:31:08;-7.10;99.90
73643;DHT22;61938;48.652;9.292;2023-12-04T00:33:34;-7.10;99.90
73643;DHT22;61938;48.652;9.292;2023-12-04T00:35:59;-7.20;99.90
73643;DHT22;61938;48.652;9.292;2023-12-04T00:38:25;-7.20;99.90
73643;DHT22;61938;48.652;9.292;2023-12-04T00:40:50;-7.20;99.90
73643;DHT22;61938;48.652;9.292;2023-12-04T00:43:16;-7.20;99.90
73643;DHT22;61938;48.652;9.292;2023-12-04T00:45:41;-7.20;99.90
73643;DHT22;61938;48.652;9.292;2023-12-04T00:48:07;-7.20;99.90
73643;DHT22;61938;48.652;9.292;2023-12-04T00:50:32;-7.20;99.90
73643;DHT22;61938;48.652;9.292;2023-12-04T00:52:58;-7.20;99.90
73643;DHT22;61938;48.652;9.292;2023-12-04T00:55:23;-7.20;99.90
73643;DHT22;61938;48.652;9.292;2023-12-04T00:57:49;-7.20;99.90
73643;DHT22;61938;48.652;9.292;2023-12-04T01:00:15;-7.20;99.90
73643;DHT22;61938;48.652;9.292;2023-12-04T01:02:40;-7.20;99.90
73643;DHT22;61938;48.652;9.292;2023-12-04T01:05:06;-7.20;99.90
73643;DHT22;61938;48.652;9.292;2023-12-04T01:07:32;-7.30;99.90
73643;DHT22;61938;48.652;9.292;2023-12-04T01:09:57;-7.30;99.90
73643;DHT22;61938;48.652;9.292;2023-12-04T01:12:23;-7.30;99.90
73643;DHT22;61938;48.652;9.292;2023-12-04T01:14:48;-7.30;99.90
73643;DHT22;61938;48.652;9.292;2023-12-04T01:17:14;-7.30;99.90
73643;DHT22;61938;48.652;9.292;2023-12-04T01:19:40;-7.30;99.90
73643;DHT22;61938;48.652;9.292;2023-12-04T01:22:05;-7.20;99.90
73643;DHT22;61938;48.652;9.292;2023-12-04T01:24:31;-7.20;99.90
73643;DHT22;61938;48.652;9.292;2023-12-04T01:26:56;-7.20;99.90
73643;DHT22;61938;48.652;9.292;2023-12-04T01:29:22;-7.20;99.90
73643;DHT22;61938;48.652;9.292;2023-12-04T01:31:47;-7.30;99.90
73643;DHT22;61938;48.652;9.292;2023-12-04T01:34:13;-7.20;99.90
73643;DHT22;61938;48.652;9.292;2023-12-04T01:36:41;-7.30;99.90
73643;DHT22;61938;48.652;9.292;2023-12-04T01:39:07;-7.30;99.90
73643;DHT22;61938;48.652;9.292;2023-12-04T01:41:33;-7.40;99.90
73643;DHT22;61938;48.652;9.292;2023-12-04T01:43:58;-7.40;99.90
73643;DHT22;61938;48.652;9.292;2023-12-04T01:46:24;-7.40;99.90
73643;DHT22;61938;48.652;9.292;2023-12-04T01:48:50;-7.40;99.90
73643;DHT22;61938;48.652;9.292;2023-12-04T01:51:17;-7.30;99.90
73643;DHT22;61938;48.652;9.292;2023-12-04T01:53:43;-7.30;99.90
73643;DHT22;61938;48.652;9.292;2023-12-04T01:56:09;-7.30;99.90
73643;DHT22;61938;48.652;9.292;2023-12-04T01:58:35;-7.30;99.90
73643;DHT22;61938;48.652;9.292;2023-12-04T02:01:02;-7.30;99.90
73643;DHT22;61938;48.652;9.292;2023-12-04T02:03:28;-7.30;99.90
73643;DHT22;61938;48.652;9.292;2023-12-04T02:05:54;-7.30;99.90
73643;DHT22;61938;48.652;9.292;2023-12-04T02:08:22;-7.30;99.90
73643;DHT22;61938;48.652;9.292;2023-12-04T02:10:48;-7.40;99.90
73643;DHT22;61938;48.652;9.292;2023-12-04T02:13:13;-7.30;99.90
73643;DHT22;61938;48.652;9.292;2023-12-04T02:15:40;-7.30;99.90
73643;DHT22;61938;48.652;9.292;2023-12-04T02:18:05;-7.30;99.90
73643;DHT22;61938;48.652;9.292;2023-12-04T02:20:32;-7.30;99.90
73643;DHT22;61938;48.652;9.292;2023-12-04T02:22:59;-7.30;99.90
73643;DHT22;61938;48.652;9.292;2023-12-04T02:25:24;-7.40;99.90
73643;DHT22;61938;48.652;9.292;2023-12-04T02:27:51;-7.40;99.90
73643;DHT22;61938;48.652;9.292;2023-12-04T02:30:21;-7.40;99.90
73643;DHT22;61938;48.652;9.292;2023-12-04T02:32:48;-7.40;99.90
73643;DHT22;61938;48.652;9.292;2023-12-04T02:35:15;-7.40;99.90
73643;DHT22;61938;48.652;9.292;2023-12-04T02:37:42;-7.50;99.90
73643;DHT22;61938;48.652;9.292;2023-12-04T02:40:08;-7.50;99.90
73643;DHT22;61938;48.652;9.292;2023-12-04T02:42:34;-7.50;99.90
73643;DHT22;61938;48.652;9.292;2023-12-04T02:44:59;-7.50;99.90
73643;DHT22;61938;48.652;9.292;2023-12-04T02:47:25;-7.50;99.90
73643;DHT22;61938;48.652;9.292;2023-12-04T02:49:50;-7.50;99.90
73643;DHT22;61938;48.652;9.292;2023-12-04T02:52:16;-7.60;99.90
73643;DHT22;61938;48.652;9.292;2023-12-04T02:54:42;-7.50;99.90
73643;DHT22;61938;48.652;9.292;2023-12-04T02:57:07;-7.50;99.90
73643;DHT22;61938;48.652;9.292;2023-12-04T02:59:33;-7.50;99.90
73643;DHT22;61938;48.652;9.292;2023-12-04T03:01:58;-7.50;99.90
73643;DHT22;61938;48.652;9.292;2023-12-04T03:04:24;-7.50;99.90
73643;DHT22;61938;48.652;9.292;2023-12-04T03:06:49;-7.50;99.90
73643;DHT22;61938;48.652;9.292;2023-12-04T03:09:15;-7.50;99.90
73643;DHT22;61938;48.652;9.292;2023-12-04T03:11:41;-7.50;99.90
73643;DHT22;61938;48.652;9.292;2023-12-04T03:14:08;-7.50;99.90
73643;DHT22;61938;48.652;9.292;2023-12-04T03:16:33;-7.40;99.90
73643;DHT22;61938;48.652;9.292;2023-12-04T03:18:59;-7.50;99.90
73643;DHT22;61938;48.652;9.292;2023-12-04T03:21:25;-7.50;99.90
73643;DHT22;61938;48.652;9.292;2023-12-04T03:23:50;-7.50;99.90
73643;DHT22;61938;48.652;9.292;2023-12-04T03:26:16;-7.40;99.90
73643;DHT22;61938;48.652;9.292;2023-12-04T03:28:41;-7.40;99.90
73643;DHT22;61938;48.652;9.292;2023-12-04T03:31:07;-7.40;99.90
73643;DHT22;61938;48.652;9.292;2023-12-04T03:33:33;-7.40;99.90
73643;DHT22;61938;48.652;9.292;2023-12-04T03:36:02;-7.40;99.90
73643;DHT22;61938;48.652;9.292;2023-12-04T03:38:27;-7.40;99.90
73643;DHT22;61938;48.652;9.292;2023-12-04T03:40:53;-7.40;99.90
73643;DHT22;61938;48.652;9.292;2023-12-04T03:43:18;-7.40;99.90
73643;DHT22;61938;48.652;9.292;2023-12-04T03:45:44;-7.30;99.90
73643;DHT22;61938;48.652;9.292;2023-12-04T03:48:10;-7.30;99.90
73643;DHT22;61938;48.652;9.292;2023-12-04T03:50:35;-7.30;99.90
73643;DHT22;61938;48.652;9.292;2023-12-04T03:53:01;-7.30;99.90
73643;DHT22;61938;48.652;9.292;2023-12-04T03:55:26;-7.30;99.90
73643;DHT22;61938;48.652;9.292;2023-12-04T03:57:53;-7.30;99.90
73643;DHT22;61938;48.652;9.292;2023-12-04T04:00:18;-7.30;99.90
73643;DHT22;61938;48.652;9.292;2023-12-04T04:02:44;-7.30;99.90
73643;DHT22;61938;48.652;9.292;2023-12-04T04:05:10;-7.20;99.90
73643;DHT22;61938;48.652;9.292;2023-12-04T04:07:35;-7.20;99.90
73643;DHT22;61938;48.652;9.292;2023-12-04T04:10:01;-7.20;99.90
73643;DHT22;61938;48.652;9.292;2023-12-04T04:12:27;-7.20;99.90
73643;DHT22;61938;48.652;9.292;2023-12-04T04:14:53;-7.20;99.90
73643;DHT22;61938;48.652;9.292;2023-12-04T04:17:18;-7.30;99.90
73643;DHT22;61938;48.652;9.292;2023-12-04T04:19:44;-7.20;99.90
73643;DHT22;61938;48.652;9.292;2023-12-04T04:22:10;-7.20;99.90
73643;DHT22;61938;48.652;9.292;2023-12-04T04:24:35;-7.30;99.90
73643;DHT22;61938;48.652;9.292;2023-12-04T04:27:01;-7.20;99.90
73643;DHT22;61938;48.652;9.292;2023-12-04T04:29:26;-7.20;99.90
73643;DHT22;61938;48.652;9.292;2023-12-04T04:31:52;-7.20;99.90
73643;DHT22;61938;48.652;9.292;2023-12-04T04:34:19;-7.20;99.90
73643;DHT22;61938;48.652;9.292;2023-12-04T04:36:45;-7.20;99.90
73643;DHT22;61938;48.652;9.292;2023-12-04T04:39:12;-7.20;99.90
73643;DHT22;61938;48.652;9.292;2023-12-04T04:41:38;-7.20;99.90
73643;DHT22;61938;48.652;9.292;2023-12-04T04:44:05;-7.20;99.90
73643;DHT22;61938;48.652;9.292;2023-12-04T04:46:30;-7.20;99.90
73643;DHT22;61938;48.652;9.292;2023-12-04T04:48:56;-7.20;99.90
73643;DHT22;61938;48.652;9.292;2023-12-04T04:51:22;-7.20;99.90
73643;DHT22;61938;48.652;9.292;2023-12-04T04:53:48;-7.20;99.90
73643;DHT22;61938;48.652;9.292;2023-12-04T04:56:14;-7.20;99.90
73643;DHT22;61938;48.652;9.292;2023-12-04T04:58:40;-7.20;99.90
73643;DHT22;61938;48.652;9.292;2023-12-04T05:01:06;-7.20;99.90
73643;DHT22;61938;48.652;9.292;2023-12-04T05:03:31;-7.10;99.90
73643;DHT22;61938;48.652;9.292;2023-12-04T05:05:57;-7.10;99.90
73643;DHT22;61938;48.652;9.292;2023-12-04T05:08:22;-7.10;99.90
73643;DHT22;61938;48.652;9.292;2023-12-04T05:10:48;-7.10;99.90
73643;DHT22;61938;48.652;9.292;2023-12-04T05:13:14;-7.10;99.90
73643;DHT22;61938;48.652;9.292;2023-12-04T05:15:39;-7.10;99.90
73643;DHT22;61938;48.652;9.292;2023-12-04T05:18:05;-7.10;99.90
73643;DHT22;61938;48.652;9.292;2023-12-04T05:20:30;-7.10;99.90
73643;DHT22;61938;48.652;9.292;2023-12-04T05:22:57;-7.10;99.90
73643;DHT22;61938;48.652;9.292;2023-12-04T05:25:22;-7.00;99.90
73643;DHT22;61938;48.652;9.292;2023-12-04T05:27:48;-7.00;99.90
73643;DHT22;61938;48.652;9.292;2023-12-04T05:30:13;-7.00;99.90
73643;DHT22;61938;48.652;9.292;2023-12-04T05:32:39;-7.00;99.90
73643;DHT22;61938;48.652;9.292;2023-12-04T05:35:05;-7.00;99.90
73643;DHT22;61938;48.652;9.292;2023-12-04T05:37:30;-7.00;99.90
73643;DHT22;61938;48.652;9.292;2023-12-04T05:39:56;-6.90;99.90
73643;DHT22;61938;48.652;9.292;2023-12-04T05:42:21;-6.90;99.90
73643;DHT22;61938;48.652;9.292;2023-12-04T05:44:47;-6.90;99.90
73643;DHT22;61938;48.652;9.292;2023-12-04T05:47:12;-6.90;99.90
73643;DHT22;61938;48.652;9.292;2023-12-04T05:49:38;-6.80;99.90
73643;DHT22;61938;48.652;9.292;2023-12-04T05:52:03;-6.80;99.90
73643;DHT22;61938;48.652;9.292;2023-12-04T05:54:29;-6.80;99.90
73643;DHT22;61938;48.652;9.292;2023-12-04T05:56:55;-6.80;99.90
73643;DHT22;61938;48.652;9.292;2023-12-04T05:59:21;-6.70;99.90
73643;DHT22;61938;48.652;9.292;2023-12-04T06:01:46;-6.70;99.90
73643;DHT22;61938;48.652;9.292;2023-12-04T06:04:12;-6.80;99.90
73643;DHT22;61938;48.652;9.292;2023-12-04T06:06:37;-6.70;99.90
73643;DHT22;61938;48.652;9.292;2023-12-04T06:09:03;-6.70;99.90
73643;DHT22;61938;48.652;9.292;2023-12-04T06:11:28;-6.70;99.90
73643;DHT22;61938;48.652;9.292;2023-12-04T06:13:54;-6.70;99.90
73643;DHT22;61938;48.652;9.292;2023-12-04T06:16:19;-6.70;99.90
73643;DHT22;61938;48.652;9.292;2023-12-04T06:18:45;-6.70;99.90
73643;DHT22;61938;48.652;9.292;2023-12-04T06:21:10;-6.70;99.90
73643;DHT22;61938;48.652;9.292;2023-12-04T06:23:36;-6.60;99.90
73643;DHT22;61938;48.652;9.292;2023-12-04T06:26:02;-6.70;99.90
73643;DHT22;61938;48.652;9.292;2023-12-04T06:28:27;-6.60;99.90
73643;DHT22;61938;48.652;9.292;2023-12-04T06:30:53;-6.60;99.90
73643;DHT22;61938;48.652;9.292;2023-12-04T06:33:19;-6.60;99.90
73643;DHT22;61938;48.652;9.292;2023-12-04T06:35:45;-6.60;99.90
73643;DHT22;61938;48.652;9.292;2023-12-04T06:38:16;-6.60;99.90
73643;DHT22;61938;48.652;9.292;2023-12-04T06:40:43;-6.60;99.90
73643;DHT22;61938;48.652;9.292;2023-12-04T06:43:09;-6.60;99.90
73643;DHT22;61938;48.652;9.292;2023-12-04T06:45:35;-6.60;99.90
73643;DHT22;61938;48.652;9.292;2023-12-04T06:48:01;-6.50;99.90
73643;DHT22;61938;48.652;9.292;2023-12-04T06:50:26;-6.50;99.90
73643;DHT22;61938;48.652;9.292;2023-12-04T06:52:52;-6.60;99.90
73643;DHT22;61938;48.652;9.292;2023-12-04T06:55:18;-6.50;99.90
73643;DHT22;61938;48.652;9.292;2023-12-04T06:57:43;-6.50;99.90
73643;DHT22;61938;48.652;9.292;2023-12-04T07:00:09;-6.50;99.90
73643;DHT22;61938;48.652;9.292;2023-12-04T07:02:39;-6.50;99.90
73643;DHT22;61938;48.652;9.292;2023-12-04T07:05:05;-6.40;99.90
73643;DHT22;61938;48.652;9.292;2023-12-04T07:07:31;-6.40;99.90
73643;DHT22;61938;48.652;9.292;2023-12-04T07:09:57;-6.40;99.90
73643;DHT22;61938;48.652;9.292;2023-12-04T07:12:22;-6.40;99.90
73643;DHT22;61938;48.652;9.292;2023-12-04T07:14:48;-6.40;99.90
73643;DHT22;61938;48.652;9.292;2023-12-04T07:17:13;-6.30;99.90
73643;DHT22;61938;48.652;9.292;2023-12-04T07:19:41;-6.30;99.90
73643;DHT22;61938;48.652;9.292;2023-12-04T07:22:07;-6.30;99.90
73643;DHT22;61938;48.652;9.292;2023-12-04T07:24:32;-6.30;99.90
73643;DHT22;61938;48.652;9.292;2023-12-04T07:26:58;-6.30;99.90
73643;DHT22;61938;48.652;9.292;2023-12-04T07:29:24;-6.30;99.90
73643;DHT22;61938;48.652;9.292;2023-12-04T07:31:49;-6.20;99.90
73643;DHT22;61938;48.652;9.292;2023-12-04T07:34:15;-6.20;99.90
73643;DHT22;61938;48.652;9.292;2023-12-04T07:36:41;-6.20;99.90
73643;DHT22;61938;48.652;9.292;2023-12-04T07:39:06;-6.20;99.90
73643;DHT22;61938;48.652;9.292;2023-12-04T07:41:32;-6.20;99.90
73643;DHT22;61938;48.652;9.292;2023-12-04T07:43:58;-6.10;99.90
73643;DHT22;61938;48.652;9.292;2023-12-04T07:46:24;-6.10;99.90
73643;DHT22;61938;48.652;9.292;2023-12-04T07:48:51;-6.10;99.90
73643;DHT22;61938;48.652;9.292;2023-12-04T07:51:16;-6.10;99.90
73643;DHT22;61938;48.652;9.292;2023-12-04T07:53:42;-6.00;99.90
73643;DHT22;61938;48.652;9.292;2023-12-04T07:56:08;-6.00;99.90
73643;DHT22;61938;48.652;9.292;2023-12-04T07:58:34;-6.00;99.90
73643;DHT22;61938;48.652;9.292;2023-12-04T08:00:59;-6.00;99.90
73643;DHT22;61938;48.652;9.292;2023-12-04T08:03:25;-5.80;99.90
73643;DHT22;61938;48.652;9.292;2023-12-04T08:05:51;-5.80;99.90
73643;DHT22;61938;48.652;9.292;2023-12-04T08:08:17;-5.80;99.90
73643;DHT22;61938;48.652;9.292;2023-12-04T08:10:43;-5.80;99.90
73643;DHT22;61938;48.652;9.292;2023-12-04T08:13:08;-5.40;99.90
73643;DHT22;61938;48.652;9.292;2023-12-04T08:15:34;-5.80;99.90
73643;DHT22;61938;48.652;9.292;2023-12-04T08:17:59;-5.70;99.90
73643;DHT22;61938;48.652;9.292;2023-12-04T08:20:26;-5.80;99.90
73643;DHT22;61938;48.652;9.292;2023-12-04T08:22:51;-5.70;99.90
73643;DHT22;61938;48.652;9.292;2023-12-04T08:25:17;-5.60;99.90
73643;DHT22;61938;48.652;9.292;2023-12-04T08:27:42;-5.60;99.90
73643;DHT22;61938;48.652;9.292;2023-12-04T08:30:08;-5.60;99.90
73643;DHT22;61938;48.652;9.292;2023-12-04T08:32:34;-5.60;99.90
73643;DHT22;61938;48.652;9.292;2023-12-04T08:34:59;-5.60;99.90
73643;DHT22;61938;48.652;9.292;2023-12-04T08:37:25;-5.60;99.90
73643;DHT22;61938;48.652;9.292;2023-12-04T08:39:51;-5.60;99.90
73643;DHT22;61938;48.652;9.292;2023-12-04T08:42:16;-5.60;99.90
73643;DHT22;61938;48.652;9.292;2023-12-04T08:44:42;-5.50;99.90
73643;DHT22;61938;48.652;9.292;2023-12-04T08:47:08;-5.50;99.90
73643;DHT22;61938;48.652;9.292;2023-12-04T08:49:33;-5.50;99.90
73643;DHT22;61938;48.652;9.292;2023-12-04T08:51:59;-5.50;99.90
73643;DHT22;61938;48.652;9.292;2023-12-04T08:54:25;-5.40;99.90
73643;DHT22;61938;48.652;9.292;2023-12-04T08:56:50;-5.40;99.90
73643;DHT22;61938;48.652;9.292;2023-12-04T08:59:16;-5.40;99.90
73643;DHT22;61938;48.652;9.292;2023-12-04T09:01:42;-5.40;99.90
73643;DHT22;61938;48.652;9.292;2023-12-04T09:04:08;-5.30;99.90
73643;DHT22;61938;48.652;9.292;2023-12-04T09:06:34;-5.30;99.90
73643;DHT22;61938;48.652;9.292;2023-12-04T09:09:00;-5.30;99.90
73643;DHT22;61938;48.652;9.292;2023-12-04T09:11:25;-5.30;99.90
73643;DHT22;61938;48.652;9.292;2023-12-04T09:13:51;-5.30;99.90
73643;DHT22;61938;48.652;9.292;2023-12-04T09:16:16;-5.20;99.90
73643;DHT22;61938;48.652;9.292;2023-12-04T09:18:42;-5.20;99.90
73643;DHT22;61938;48.652;9.292;2023-12-04T09:21:07;-5.20;99.90
73643;DHT22;61938;48.652;9.292;2023-12-04T09:23:34;-5.20;99.90
73643;DHT22;61938;48.652;9.292;2023-12-04T09:26:00;-5.10;99.90
73643;DHT22;61938;48.652;9.292;2023-12-04T09:28:25;-5.10;99.90
73643;DHT22;61938;48.652;9.292;2023-12-04T09:30:51;-5.10;99.90
73643;DHT22;61938;48.652;9.292;2023-12-04T09:33:17;-5.10;99.90
73643;DHT22;61938;48.652;9.292;2023-12-04T09:35:42;-5.10;99.90
73643;DHT22;61938;48.652;9.292;2023-12-04T09:38:08;-5.10;99.90
73643;DHT22;61938;48.652;9.292;2023-12-04T09:40:33;-5.10;99.90
73643;DHT22;61938;48.652;9.292;2023-12-04T09:42:59;-5.00;99.90
73643;DHT22;61938;48.652;9.292;2023-12-04T09:45:24;-5.00;99.90
73643;DHT22;61938;48.652;9.292;2023-12-04T09:47:50;-5.00;99.90
73643;DHT22;61938;48.652;9.292;2023-12-04T09:50:17;-5.00;99.90
73643;DHT22;61938;48.652;9.292;2023-12-04T09:52:50;-4.90;99.90
73643;DHT22;61938;48.652;9.292;2023-12-04T09:55:18;-4.90;99.90
73643;DHT22;61938;48.652;9.292;2023-12-04T09:57:45;-4.90;99.90
73643;DHT22;61938;48.652;9.292;2023-12-04T10:00:15;-4.80;99.90
73643;DHT22;61938;48.652;9.292;2023-12-04T10:02:41;-4.80;99.90
73643;DHT22;61938;48.652;9.292;2023-12-04T10:05:08;-4.80;99.90
73643;DHT22;61938;48.652;9.292;2023-12-04T10:07:34;-4.80;99.90
73643;DHT22;61938;48.652;9.292;2023-12-04T10:09:59;-4.70;99.90
73643;DHT22;61938;48.652;9.292;2023-12-04T10:12:25;-4.70;99.90
73643;DHT22;61938;48.652;9.292;2023-12-04T10:15:08;-4.70;99.90
73643;DHT22;61938;48.652;9.292;2023-12-04T10:17:38;-4.60;99.90
73643;DHT22;61938;48.652;9.292;2023-12-04T10:20:12;-4.60;99.90
73643;DHT22;61938;48.652;9.292;2023-12-04T10:22:39;-4.60;99.90
73643;DHT22;61938;48.652;9.292;2023-12-04T10:25:15;-4.60;99.90
73643;DHT22;61938;48.652;9.292;2023-12-04T10:27:41;-4.50;99.90
73643;DHT22;61938;48.652;9.292;2023-12-04T10:30:07;-4.50;99.90
73643;DHT22;61938;48.652;9.292;2023-12-04T10:32:38;-4.40;99.90
73643;DHT22;61938;48.652;9.292;2023-12-04T10:35:05;-4.40;99.90
73643;DHT22;61938;48.652;9.292;2023-12-04T10:37:36;-4.40;99.90
73643;DHT22;61938;48.652;9.292;2023-12-04T10:40:02;-4.30;99.90
73643;DHT22;61938;48.652;9.292;2023-12-04T10:42:29;-4.30;99.90
73643;DHT22;61938;48.652;9.292;2023-12-04T10:44:58;-4.30;99.90
73643;DHT22;61938;48.652;9.292;2023-12-04T10:47:25;-4.20;99.90
73643;DHT22;61938;48.652;9.292;2023-12-04T10:49:51;-4.20;99.90
73643;DHT22;61938;48.652;9.292;2023-12-04T10:52:17;-4.20;99.90
73643;DHT22;61938;48.652;9.292;2023-12-04T10:54:47;-4.20;99.90
73643;DHT22;61938;48.652;9.292;2023-12-04T10:57:21;-4.10;99.90
73643;DHT22;61938;48.652;9.292;2023-12-04T10:59:47;-4.10;99.90
73643;DHT22;61938;48.652;9.292;2023-12-04T11:02:18;-4.00;99.90
73643;DHT22;61938;48.652;9.292;2023-12-04T11:04:49;-4.60;99.90
73643;DHT22;61938;48.652;9.292;2023-12-04T11:07:18;-3.90;99.90
73643;DHT22;61938;48.652;9.292;2023-12-04T11:09:46;-3.90;99.90
73643;DHT22;61938;48.652;9.292;2023-12-04T11:12:18;-3.90;99.90
73643;DHT22;61938;48.652;9.292;2023-12-04T11:14:46;-3.80;99.90
73643;DHT22;61938;48.652;9.292;2023-12-04T11:17:15;-3.80;99.90
73643;DHT22;61938;48.652;9.292;2023-12-04T11:19:54;-3.70;99.90
73643;DHT22;61938;48.652;9.292;2023-12-04T11:22:21;-3.70;99.90
73643;DHT22;61938;48.652;9.292;2023-12-04T11:24:47;-3.70;99.90
73643;DHT22;61938;48.652;9.292;2023-12-04T11:27:17;-3.60;99.90
73643;DHT22;61938;48.652;9.292;2023-12-04T11:29:44;-3.70;99.90
73643;DHT22;61938;48.652;9.292;2023-12-04T11:32:24;-3.50;99.90
73643;DHT22;61938;48.652;9.292;2023-12-04T11:34:56;-3.50;99.90
73643;DHT22;61938;48.652;9.292;2023-12-04T11:37:25;-3.50;99.90
73643;DHT22;61938;48.652;9.292;2023-12-04T11:39:51;-3.50;99.90
73643;DHT22;61938;48.652;9.292;2023-12-04T11:42:22;-3.40;99.90
73643;DHT22;61938;48.652;9.292;2023-12-04T11:44:48;-3.40;99.90
73643;DHT22;61938;48.652;9.292;2023-12-04T11:47:15;-3.40;99.90
73643;DHT22;61938;48.652;9.292;2023-12-04T11:49:41;-3.40;99.90
73643;DHT22;61938;48.652;9.292;2023-12-04T11:52:07;-3.40;99.90
73643;DHT22;61938;48.652;9.292;2023-12-04T11:54:58;-3.30;99.90
73643;DHT22;61938;48.652;9.292;2023-12-04T11:57:24;-3.30;99.90
73643;DHT22;61938;48.652;9.292;2023-12-04T11:59:51;-3.30;99.90
73643;DHT22;61938;48.652;9.292;2023-12-04T12:02:17;-3.20;99.90
73643;DHT22;61938;48.652;9.292;2023-12-04T12:04:43;-3.00;99.90
73643;DHT22;61938;48.652;9.292;2023-12-04T12:07:11;-3.00;99.90
73643;DHT22;61938;48.652;9.292;2023-12-04T12:09:37;-3.00;99.90
73643;DHT22;61938;48.652;9.292;2023-12-04T12:12:03;-3.00;99.90
73643;DHT22;61938;48.652;9.292;2023-12-04T12:14:30;-2.90;99.90
73643;DHT22;61938;48.652;9.292;2023-12-04T12:16:57;-2.90;99.90
73643;DHT22;61938;48.652;9.292;2023-12-04T12:19:22;-2.70;99.90
73643;DHT22;61938;48.652;9.292;2023-12-04T12:21:48;-2.70;99.90
73643;DHT22;61938;48.652;9.292;2023-12-04T12:24:17;-2.80;99.90
73643;DHT22;61938;48.652;9.292;2023-12-04T12:26:42;-2.80;99.90
73643;DHT22;61938;48.652;9.292;2023-12-04T12:29:11;-2.60;99.90
73643;DHT22;61938;48.652;9.292;2023-12-04T12:31:37;-2.70;99.90
73643;DHT22;61938;48.652;9.292;2023-12-04T12:34:03;-2.70;99.90
73643;DHT22;61938;48.652;9.292;2023-12-04T12:36:29;-2.70;99.90
73643;DHT22;61938;48.652;9.292;2023-12-04T12:38:57;-2.60;99.90
73643;DHT22;61938;48.652;9.292;2023-12-04T12:41:23;-2.60;99.90
73643;DHT22;61938;48.652;9.292;2023-12-04T12:43:51;-2.50;99.90
73643;DHT22;61938;48.652;9.292;2023-12-04T12:46:18;-2.50;99.90
73643;DHT22;61938;48.652;9.292;2023-12-04T12:48:44;-2.40;99.90
73643;DHT22;61938;48.652;9.292;2023-12-04T12:51:09;-2.50;99.90
73643;DHT22;61938;48.652;9.292;2023-12-04T12:53:36;-2.40;99.90
73643;DHT22;61938;48.652;9.292;2023-12-04T12:56:03;-2.40;99.90
73643;DHT22;61938;48.652;9.292;2023-12-04T12:58:29;-2.40;99.90
73643;DHT22;61938;48.652;9.292;2023-12-04T13:00:55;-2.40;99.90
73643;DHT22;61938;48.652;9.292;2023-12-04T13:03:20;-2.40;99.90
73643;DHT22;61938;48.652;9.292;2023-12-04T13:05:47;-2.40;99.90
73643;DHT22;61938;48.652;9.292;2023-12-04T13:08:12;-2.40;99.90
73643;DHT22;61938;48.652;9.292;2023-12-04T13:10:39;-2.40;99.90
73643;DHT22;61938;48.652;9.292;2023-12-04T13:13:09;-2.40;99.90
73643;DHT22;61938;48.652;9.292;2023-12-04T13:15:35;-2.40;99.90
73643;DHT22;61938;48.652;9.292;2023-12-04T13:18:00;-2.40;99.90
73643;DHT22;61938;48.652;9.292;2023-12-04T13:20:27;-2.30;99.90
73643;DHT22;61938;48.652;9.292;2023-12-04T13:22:52;-2.30;99.90
73643;DHT22;61938;48.652;9.292;2023-12-04T13:25:19;-2.20;99.90
73643;DHT22;61938;48.652;9.292;2023-12-04T13:27:46;-2.20;99.90
73643;DHT22;61938;48.652;9.292;2023-12-04T13:30:11;-2.20;99.90
73643;DHT22;61938;48.652;9.292;2023-12-04T13:32:38;-2.10;99.90
73643;DHT22;61938;48.652;9.292;2023-12-04T13:35:04;-2.20;99.90
73643;DHT22;61938;48.652;9.292;2023-12-04T13:37:34;-2.20;99.90
73643;DHT22;61938;48.652;9.292;2023-12-04T13:40:02;-2.20;99.90
73643;DHT22;61938;48.652;9.292;2023-12-04T13:42:32;-2.20;99.90
73643;DHT22;61938;48.652;9.292;2023-12-04T13:45:16;-2.20;99.90
73643;DHT22;61938;48.652;9.292;2023-12-04T13:47:42;-2.20;99.90
73643;DHT22;61938;48.652;9.292;2023-12-04T13:50:09;-2.20;99.90
73643;DHT22;61938;48.652;9.292;2023-12-04T13:52:37;-1.70;99.90
73643;DHT22;61938;48.652;9.292;2023-12-04T13:55:05;-2.20;99.90
73643;DHT22;61938;48.652;9.292;2023-12-04T13:57:44;-2.10;99.90
73643;DHT22;61938;48.652;9.292;2023-12-04T14:00:30;-2.10;99.90
73643;DHT22;61938;48.652;9.292;2023-12-04T14:02:55;-2.10;99.90
73643;DHT22;61938;48.652;9.292;2023-12-04T14:05:33;-2.10;99.90
73643;DHT22;61938;48.652;9.292;2023-12-04T14:08:02;-2.10;99.90
73643;DHT22;61938;48.652;9.292;2023-12-04T14:10:29;-2.10;99.90
73643;DHT22;61938;48.652;9.292;2023-12-04T14:12:55;-2.10;99.90
73643;DHT22;61938;48.652;9.292;2023-12-04T14:15:20;-2.00;99.90
73643;DHT22;61938;48.652;9.292;2023-12-04T14:17:46;-2.00;99.90
73643;DHT22;61938;48.652;9.292;2023-12-04T14:20:12;-2.00;99.90
73643;DHT22;61938;48.652;9.292;2023-12-04T14:22:42;-2.00;99.90
73643;DHT22;61938;48.652;9.292;2023-12-04T14:25:09;-2.00;99.90
73643;DHT22;61938;48.652;9.292;2023-12-04T14:27:35;-2.00;99.90
73643;DHT22;61938;48.652;9.292;2023-12-04T14:30:01;-2.00;99.90
73643;DHT22;61938;48.652;9.292;2023-12-04T14:32:29;-2.00;99.90
73643;DHT22;61938;48.652;9.292;2023-12-04T14:34:54;-2.00;99.90
73643;DHT22;61938;48.652;9.292;2023-12-04T14:37:20;-2.00;99.90
73643;DHT22;61938;48.652;9.292;2023-12-04T14:39:45;-2.00;99.90
73643;DHT22;61938;48.652;9.292;2023-12-04T14:42:11;-1.90;99.90
73643;DHT22;61938;48.652;9.292;2023-12-04T14:44:36;-1.90;99.90
73643;DHT22;61938;48.652;9.292;2023-12-04T14:47:02;-2.00;99.90
73643;DHT22;61938;48.652;9.292;2023-12-04T14:49:29;-1.90;99.90
73643;DHT22;61938;48.652;9.292;2023-12-04T14:51:57;-1.90;99.90
73643;DHT22;61938;48.652;9.292;2023-12-04T14:54:22;-1.90;99.90
73643;DHT22;61938;48.652;9.292;2023-12-04T14:57:03;-1.90;99.90
73643;DHT22;61938;48.652;9.292;2023-12-04T14:59:51;-1.90;99.90
73643;DHT22;61938;48.652;9.292;2023-12-04T15:02:32;-1.90;99.90
73643;DHT22;61938;48.652;9.292;2023-12-04T15:05:30;-1.90;99.90
73643;DHT22;61938;48.652;9.292;2023-12-04T15:08:05;-1.90;99.90
73643;DHT22;61938;48.652;9.292;2023-12-04T15:11:06;-1.80;99.90
73643;DHT22;61938;48.652;9.292;2023-12-04T15:13:49;-1.90;99.90
73643;DHT22;61938;48.652;9.292;2023-12-04T15:16:34;-1.80;99.90
73643;DHT22;61938;48.652;9.292;2023-12-04T15:19:05;-1.70;99.90
73643;DHT22;61938;48.652;9.292;2023-12-04T15:21:31;-1.80;99.90
73643;DHT22;61938;48.652;9.292;2023-12-04T15:23:56;-1.80;99.90
73643;DHT22;61938;48.652;9.292;2023-12-04T15:26:22;-1.70;99.90
73643;DHT22;61938;48.652;9.292;2023-12-04T15:28:48;-1.70;99.90